sensor_id;sensor_type;location;lat;lon;timestamp;P1;durP1;ratioP1;P2;durP2;ratioP2
70049;SDS011;57391;51.306;22.680;2023-12-20T00:01:35;23.10;;;11.30;;
70049;SDS011;57391;51.306;22.680;2023-12-20T00:03:37;19.80;;;9.60;;
70049;SDS011;57391;51.306;22.680;2023-12-20T00:05:39;23.20;;;10.60;;
70049;SDS011;57391;51.306;22.680;2023-12-20T00:07:42;19.70;;;9.20;;
70049;SDS011;57391;51.306;22.680;2023-12-20T00:09:44;20.30;;;9.70;;
70049;SDS011;57391;51.306;22.680;2023-12-20T00:11:46;21.10;;;11.00;;
70049;SDS011;57391;51.306;22.680;2023-12-20T00:13:47;21.00;;;9.70;;
70049;SDS011;57391;51.306;22.680;2023-12-20T00:15:49;21.60;;;11.50;;
70049;SDS011;57391;51.306;22.680;2023-12-20T00:17:51;21.40;;;10.90;;
70049;SDS011;57391;51.306;22.680;2023-12-20T00:19:53;22.10;;;10.60;;
70049;SDS011;57391;51.306;22.680;2023-12-20T00:21:54;20.20;;;10.00;;
70049;SDS011;57391;51.306;22.680;2023-12-20T00:23:56;23.60;;;11.70;;
70049;SDS011;57391;51.306;22.680;2023-12-20T00:25:58;24.40;;;11.70;;
70049;SDS011;57391;51.306;22.680;2023-12-20T00:28:00;21.10;;;10.40;;
70049;SDS011;57391;51.306;22.680;2023-12-20T00:30:02;17.90;;;9.30;;
70049;SDS011;57391;51.306;22.680;2023-12-20T00:32:04;22.70;;;10.80;;
70049;SDS011;57391;51.306;22.680;2023-12-20T00:34:06;19.60;;;10.00;;
70049;SDS011;57391;51.306;22.680;2023-12-20T00:36:08;23.50;;;11.20;;
70049;SDS011;57391;51.306;22.680;2023-12-20T00:38:09;16.80;;;9.00;;
70049;SDS011;57391;51.306;22.680;2023-12-20T00:40:13;18.90;;;9.40;;
70049;SDS011;57391;51.306;22.680;2023-12-20T00:42:14;20.60;;;10.50;;
70049;SDS011;57391;51.306;22.680;2023-12-20T00:44:16;21.30;;;10.20;;
70049;SDS011;57391;51.306;22.680;2023-12-20T00:46:18;19.70;;;10.00;;
70049;SDS011;57391;51.306;22.680;2023-12-20T00:48:21;21.10;;;10.50;;
70049;SDS011;57391;51.306;22.680;2023-12-20T00:50:22;19.50;;;9.70;;
70049;SDS011;57391;51.306;22.680;2023-12-20T00:52:24;21.00;;;10.30;;
70049;SDS011;57391;51.306;22.680;2023-12-20T00:54:26;22.90;;;11.10;;
70049;SDS011;57391;51.306;22.680;2023-12-20T00:56:28;19.90;;;9.50;;
70049;SDS011;57391;51.306;22.680;2023-12-20T00:58:30;21.10;;;9.90;;
70049;SDS011;57391;51.306;22.680;2023-12-20T01:00:32;20.10;;;9.50;;
70049;SDS011;57391;51.306;22.680;2023-12-20T01:02:34;23.10;;;10.50;;
70049;SDS011;57391;51.306;22.680;2023-12-20T01:04:36;20.90;;;10.30;;
70049;SDS011;57391;51.306;22.680;2023-12-20T01:06:38;20.20;;;9.00;;
70049;SDS011;57391;51.306;22.680;2023-12-20T01:08:40;21.00;;;10.00;;
70049;SDS011;57391;51.306;22.680;2023-12-20T01:10:41;19.30;;;9.50;;
70049;SDS011;57391;51.306;22.680;2023-12-20T01:12:43;18.20;;;9.70;;
70049;SDS011;57391;51.306;22.680;2023-12-20T01:14:45;20.00;;;9.70;;
70049;SDS011;57391;51.306;22.680;2023-12-20T01:16:47;20.30;;;10.40;;
70049;SDS011;57391;51.306;22.680;2023-12-20T01:18:49;19.30;;;9.50;;
70049;SDS011;57391;51.306;22.680;2023-12-20T01:20:51;22.80;;;10.50;;
70049;SDS011;57391;51.306;22.680;2023-12-20T01:22:53;20.90;;;9.90;;
70049;SDS011;57391;51.306;22.680;2023-12-20T01:24:54;20.60;;;11.20;;
70049;SDS011;57391;51.306;22.680;2023-12-20T01:26:57;18.00;;;9.40;;
70049;SDS011;57391;51.306;22.680;2023-12-20T01:28:59;20.70;;;9.50;;
70049;SDS011;57391;51.306;22.680;2023-12-20T01:31:01;19.80;;;9.50;;
70049;SDS011;57391;51.306;22.680;2023-12-20T01:33:02;18.50;;;9.70;;
70049;SDS011;57391;51.306;22.680;2023-12-20T01:35:04;19.20;;;9.00;;
70049;SDS011;57391;51.306;22.680;2023-12-20T01:37:06;19.40;;;8.90;;
70049;SDS011;57391;51.306;22.680;2023-12-20T01:39:08;16.70;;;9.00;;
70049;SDS011;57391;51.306;22.680;2023-12-20T01:41:10;19.90;;;10.10;;
70049;SDS011;57391;51.306;22.680;2023-12-20T01:43:12;20.20;;;10.20;;
70049;SDS011;57391;51.306;22.680;2023-12-20T01:45:14;19.90;;;9.40;;
70049;SDS011;57391;51.306;22.680;2023-12-20T01:47:16;19.60;;;10.10;;
70049;SDS011;57391;51.306;22.680;2023-12-20T01:49:18;19.30;;;9.10;;
70049;SDS011;57391;51.306;22.680;2023-12-20T01:51:20;17.80;;;9.50;;
70049;SDS011;57391;51.306;22.680;2023-12-20T01:53:25;17.40;;;9.10;;
70049;SDS011;57391;51.306;22.680;2023-12-20T01:55:27;18.60;;;8.70;;
70049;SDS011;57391;51.306;22.680;2023-12-20T01:57:33;16.50;;;8.70;;
70049;SDS011;57391;51.306;22.680;2023-12-20T01:59:35;19.90;;;9.00;;
70049;SDS011;57391;51.306;22.680;2023-12-20T02:01:37;18.80;;;8.80;;
70049;SDS011;57391;51.306;22.680;2023-12-20T02:03:42;18.00;;;9.40;;
70049;SDS011;57391;51.306;22.680;2023-12-20T02:05:44;18.60;;;9.50;;
70049;SDS011;57391;51.306;22.680;2023-12-20T02:07:48;19.30;;;9.40;;
70049;SDS011;57391;51.306;22.680;2023-12-20T02:09:50;18.40;;;9.10;;
70049;SDS011;57391;51.306;22.680;2023-12-20T02:11:52;18.80;;;9.00;;
70049;SDS011;57391;51.306;22.680;2023-12-20T02:13:53;17.90;;;8.10;;
70049;SDS011;57391;51.306;22.680;2023-12-20T02:15:56;17.30;;;9.40;;
70049;SDS011;57391;51.306;22.680;2023-12-20T02:17:58;21.30;;;9.40;;
70049;SDS011;57391;51.306;22.680;2023-12-20T02:20:00;19.40;;;9.10;;
70049;SDS011;57391;51.306;22.680;2023-12-20T02:22:09;19.50;;;9.40;;
70049;SDS011;57391;51.306;22.680;2023-12-20T02:24:12;19.10;;;9.00;;
70049;SDS011;57391;51.306;22.680;2023-12-20T02:26:14;17.70;;;8.90;;
70049;SDS011;57391;51.306;22.680;2023-12-20T02:28:16;18.90;;;9.80;;
70049;SDS011;57391;51.306;22.680;2023-12-20T02:30:18;18.00;;;8.60;;
70049;SDS011;57391;51.306;22.680;2023-12-20T02:32:20;16.50;;;8.30;;
70049;SDS011;57391;51.306;22.680;2023-12-20T02:34:23;18.30;;;10.20;;
70049;SDS011;57391;51.306;22.680;2023-12-20T02:36:25;19.10;;;9.10;;
70049;SDS011;57391;51.306;22.680;2023-12-20T02:38:27;20.00;;;10.20;;
70049;SDS011;57391;51.306;22.680;2023-12-20T02:40:29;19.40;;;9.40;;
70049;SDS011;57391;51.306;22.680;2023-12-20T02:42:31;17.30;;;8.70;;
70049;SDS011;57391;51.306;22.680;2023-12-20T02:44:32;20.80;;;9.40;;
70049;SDS011;57391;51.306;22.680;2023-12-20T02:46:34;18.20;;;9.50;;
70049;SDS011;57391;51.306;22.680;2023-12-20T02:48:36;17.40;;;8.60;;
70049;SDS011;57391;51.306;22.680;2023-12-20T02:50:37;20.50;;;8.90;;
70049;SDS011;57391;51.306;22.680;2023-12-20T02:52:39;20.90;;;10.10;;
70049;SDS011;57391;51.306;22.680;2023-12-20T02:54:41;18.00;;;9.50;;
70049;SDS011;57391;51.306;22.680;2023-12-20T02:56:43;17.60;;;9.10;;
70049;SDS011;57391;51.306;22.680;2023-12-20T02:58:44;19.60;;;10.20;;
70049;SDS011;57391;51.306;22.680;2023-12-20T03:00:46;19.40;;;9.80;;
70049;SDS011;57391;51.306;22.680;2023-12-20T03:02:48;16.50;;;9.10;;
70049;SDS011;57391;51.306;22.680;2023-12-20T03:04:50;18.90;;;10.30;;
70049;SDS011;57391;51.306;22.680;2023-12-20T03:06:51;19.40;;;9.90;;
70049;SDS011;57391;51.306;22.680;2023-12-20T03:08:53;19.70;;;8.90;;
70049;SDS011;57391;51.306;22.680;2023-12-20T03:10:55;20.50;;;10.00;;
70049;SDS011;57391;51.306;22.680;2023-12-20T03:12:57;19.20;;;9.30;;
70049;SDS011;57391;51.306;22.680;2023-12-20T03:14:59;21.70;;;10.50;;
70049;SDS011;57391;51.306;22.680;2023-12-20T03:17:00;18.20;;;9.10;;
70049;SDS011;57391;51.306;22.680;2023-12-20T03:19:02;20.00;;;9.70;;
70049;SDS011;57391;51.306;22.680;2023-12-20T03:21:05;18.70;;;9.00;;
70049;SDS011;57391;51.306;22.680;2023-12-20T03:23:07;18.50;;;8.70;;
70049;SDS011;57391;51.306;22.680;2023-12-20T03:25:09;17.20;;;9.00;;
70049;SDS011;57391;51.306;22.680;2023-12-20T03:27:11;19.10;;;9.20;;
70049;SDS011;57391;51.306;22.680;2023-12-20T03:29:12;18.80;;;9.40;;
70049;SDS011;57391;51.306;22.680;2023-12-20T03:31:14;19.30;;;9.70;;
70049;SDS011;57391;51.306;22.680;2023-12-20T03:33:16;18.10;;;9.00;;
70049;SDS011;57391;51.306;22.680;2023-12-20T03:35:18;19.20;;;9.40;;
70049;SDS011;57391;51.306;22.680;2023-12-20T03:37:21;19.80;;;8.70;;
70049;SDS011;57391;51.306;22.680;2023-12-20T03:39:23;20.80;;;9.80;;
70049;SDS011;57391;51.306;22.680;2023-12-20T03:41:25;17.60;;;8.90;;
70049;SDS011;57391;51.306;22.680;2023-12-20T03:43:27;17.90;;;9.10;;
70049;SDS011;57391;51.306;22.680;2023-12-20T03:45:28;18.80;;;9.10;;
70049;SDS011;57391;51.306;22.680;2023-12-20T03:47:30;18.70;;;9.40;;
70049;SDS011;57391;51.306;22.680;2023-12-20T03:49:32;18.40;;;9.60;;
70049;SDS011;57391;51.306;22.680;2023-12-20T03:51:34;18.30;;;9.70;;
70049;SDS011;57391;51.306;22.680;2023-12-20T03:53:36;20.30;;;10.00;;
70049;SDS011;57391;51.306;22.680;2023-12-20T03:55:37;18.80;;;10.20;;
70049;SDS011;57391;51.306;22.680;2023-12-20T03:57:39;21.10;;;10.10;;
70049;SDS011;57391;51.306;22.680;2023-12-20T03:59:41;17.50;;;9.50;;
70049;SDS011;57391;51.306;22.680;2023-12-20T04:01:43;18.50;;;9.20;;
70049;SDS011;57391;51.306;22.680;2023-12-20T04:03:48;16.70;;;8.30;;
70049;SDS011;57391;51.306;22.680;2023-12-20T04:05:50;17.80;;;8.90;;
70049;SDS011;57391;51.306;22.680;2023-12-20T04:07:52;19.60;;;10.30;;
70049;SDS011;57391;51.306;22.680;2023-12-20T04:09:54;19.60;;;8.80;;
70049;SDS011;57391;51.306;22.680;2023-12-20T04:11:55;18.70;;;9.80;;
70049;SDS011;57391;51.306;22.680;2023-12-20T04:13:57;15.60;;;8.20;;
70049;SDS011;57391;51.306;22.680;2023-12-20T04:15:59;18.80;;;9.20;;
70049;SDS011;57391;51.306;22.680;2023-12-20T04:18:01;16.30;;;8.30;;
70049;SDS011;57391;51.306;22.680;2023-12-20T04:20:03;20.20;;;9.90;;
70049;SDS011;57391;51.306;22.680;2023-12-20T04:22:05;19.60;;;9.80;;
70049;SDS011;57391;51.306;22.680;2023-12-20T04:24:07;22.00;;;10.40;;
70049;SDS011;57391;51.306;22.680;2023-12-20T04:26:10;20.30;;;10.20;;
70049;SDS011;57391;51.306;22.680;2023-12-20T04:28:11;19.80;;;10.40;;
70049;SDS011;57391;51.306;22.680;2023-12-20T04:30:13;19.20;;;9.60;;
70049;SDS011;57391;51.306;22.680;2023-12-20T04:32:15;17.10;;;9.40;;
70049;SDS011;57391;51.306;22.680;2023-12-20T04:34:17;17.40;;;9.60;;
70049;SDS011;57391;51.306;22.680;2023-12-20T04:36:19;16.70;;;9.40;;
70049;SDS011;57391;51.306;22.680;2023-12-20T04:38:21;18.90;;;9.90;;
70049;SDS011;57391;51.306;22.680;2023-12-20T04:40:23;17.60;;;9.50;;
70049;SDS011;57391;51.306;22.680;2023-12-20T04:42:25;17.00;;;8.60;;
70049;SDS011;57391;51.306;22.680;2023-12-20T04:44:26;19.70;;;9.30;;
70049;SDS011;57391;51.306;22.680;2023-12-20T04:46:28;16.80;;;8.80;;
70049;SDS011;57391;51.306;22.680;2023-12-20T04:48:30;16.20;;;8.60;;
70049;SDS011;57391;51.306;22.680;2023-12-20T04:50:32;17.50;;;9.50;;
70049;SDS011;57391;51.306;22.680;2023-12-20T04:52:34;19.40;;;10.30;;
70049;SDS011;57391;51.306;22.680;2023-12-20T04:54:36;19.50;;;9.50;;
70049;SDS011;57391;51.306;22.680;2023-12-20T04:56:38;19.00;;;10.20;;
70049;SDS011;57391;51.306;22.680;2023-12-20T04:58:40;17.60;;;9.60;;
70049;SDS011;57391;51.306;22.680;2023-12-20T05:00:43;18.00;;;9.80;;
70049;SDS011;57391;51.306;22.680;2023-12-20T05:02:45;16.10;;;8.70;;
70049;SDS011;57391;51.306;22.680;2023-12-20T05:04:47;19.60;;;10.00;;
70049;SDS011;57391;51.306;22.680;2023-12-20T05:06:48;20.60;;;10.60;;
70049;SDS011;57391;51.306;22.680;2023-12-20T05:08:51;18.90;;;10.00;;
70049;SDS011;57391;51.306;22.680;2023-12-20T05:10:54;19.70;;;9.50;;
70049;SDS011;57391;51.306;22.680;2023-12-20T05:12:56;20.50;;;10.50;;
70049;SDS011;57391;51.306;22.680;2023-12-20T05:14:58;16.80;;;9.50;;
70049;SDS011;57391;51.306;22.680;2023-12-20T05:16:59;19.50;;;9.70;;
70049;SDS011;57391;51.306;22.680;2023-12-20T05:19:01;21.40;;;10.60;;
70049;SDS011;57391;51.306;22.680;2023-12-20T05:21:08;16.80;;;9.00;;
70049;SDS011;57391;51.306;22.680;2023-12-20T05:23:09;19.30;;;10.50;;
70049;SDS011;57391;51.306;22.680;2023-12-20T05:25:13;21.20;;;10.60;;
70049;SDS011;57391;51.306;22.680;2023-12-20T05:27:14;20.90;;;10.50;;
70049;SDS011;57391;51.306;22.680;2023-12-20T05:29:16;19.50;;;9.70;;
70049;SDS011;57391;51.306;22.680;2023-12-20T05:31:18;20.20;;;9.90;;
70049;SDS011;57391;51.306;22.680;2023-12-20T05:33:20;17.20;;;9.70;;
70049;SDS011;57391;51.306;22.680;2023-12-20T05:35:22;19.00;;;10.50;;
70049;SDS011;57391;51.306;22.680;2023-12-20T05:37:24;22.10;;;10.30;;
70049;SDS011;57391;51.306;22.680;2023-12-20T05:39:27;21.00;;;10.60;;
70049;SDS011;57391;51.306;22.680;2023-12-20T05:41:28;19.70;;;10.80;;
70049;SDS011;57391;51.306;22.680;2023-12-20T05:43:30;22.10;;;11.40;;
70049;SDS011;57391;51.306;22.680;2023-12-20T05:45:32;20.70;;;10.90;;
70049;SDS011;57391;51.306;22.680;2023-12-20T05:47:34;19.70;;;9.80;;
70049;SDS011;57391;51.306;22.680;2023-12-20T05:49:36;16.70;;;9.30;;
70049;SDS011;57391;51.306;22.680;2023-12-20T05:51:38;19.40;;;9.70;;
70049;SDS011;57391;51.306;22.680;2023-12-20T05:53:39;17.90;;;9.60;;
70049;SDS011;57391;51.306;22.680;2023-12-20T05:55:41;18.40;;;8.90;;
70049;SDS011;57391;51.306;22.680;2023-12-20T05:57:43;20.70;;;10.50;;
70049;SDS011;57391;51.306;22.680;2023-12-20T05:59:45;19.70;;;10.80;;
70049;SDS011;57391;51.306;22.680;2023-12-20T06:01:47;19.90;;;9.90;;
70049;SDS011;57391;51.306;22.680;2023-12-20T06:03:49;19.90;;;9.90;;
70049;SDS011;57391;51.306;22.680;2023-12-20T06:05:51;19.50;;;9.70;;
70049;SDS011;57391;51.306;22.680;2023-12-20T06:07:53;20.00;;;10.60;;
70049;SDS011;57391;51.306;22.680;2023-12-20T06:09:55;19.00;;;10.50;;
70049;SDS011;57391;51.306;22.680;2023-12-20T06:11:57;21.60;;;9.90;;
70049;SDS011;57391;51.306;22.680;2023-12-20T06:13:59;20.10;;;10.80;;
70049;SDS011;57391;51.306;22.680;2023-12-20T06:16:01;19.60;;;10.10;;
70049;SDS011;57391;51.306;22.680;2023-12-20T06:18:08;20.90;;;11.30;;
70049;SDS011;57391;51.306;22.680;2023-12-20T06:20:10;21.90;;;11.20;;
70049;SDS011;57391;51.306;22.680;2023-12-20T06:22:16;21.80;;;10.60;;
70049;SDS011;57391;51.306;22.680;2023-12-20T06:24:18;20.90;;;11.10;;
70049;SDS011;57391;51.306;22.680;2023-12-20T06:26:20;20.80;;;10.90;;
70049;SDS011;57391;51.306;22.680;2023-12-20T06:28:22;19.80;;;10.40;;
70049;SDS011;57391;51.306;22.680;2023-12-20T06:30:25;18.00;;;9.70;;
70049;SDS011;57391;51.306;22.680;2023-12-20T06:32:28;21.20;;;10.00;;
70049;SDS011;57391;51.306;22.680;2023-12-20T06:34:30;21.70;;;11.10;;
70049;SDS011;57391;51.306;22.680;2023-12-20T06:36:32;19.70;;;9.80;;
70049;SDS011;57391;51.306;22.680;2023-12-20T06:38:34;17.70;;;8.70;;
70049;SDS011;57391;51.306;22.680;2023-12-20T06:40:36;17.20;;;9.60;;
70049;SDS011;57391;51.306;22.680;2023-12-20T06:42:38;17.80;;;9.60;;
70049;SDS011;57391;51.306;22.680;2023-12-20T06:44:40;17.80;;;9.60;;
70049;SDS011;57391;51.306;22.680;2023-12-20T06:46:43;20.70;;;10.80;;
70049;SDS011;57391;51.306;22.680;2023-12-20T06:48:45;19.20;;;10.40;;
70049;SDS011;57391;51.306;22.680;2023-12-20T06:50:47;16.00;;;8.90;;
70049;SDS011;57391;51.306;22.680;2023-12-20T06:52:49;17.60;;;9.50;;
70049;SDS011;57391;51.306;22.680;2023-12-20T06:54:51;17.60;;;9.30;;
70049;SDS011;57391;51.306;22.680;2023-12-20T06:56:53;17.10;;;9.80;;
70049;SDS011;57391;51.306;22.680;2023-12-20T06:58:54;15.50;;;8.70;;
70049;SDS011;57391;51.306;22.680;2023-12-20T07:00:56;17.40;;;8.90;;
70049;SDS011;57391;51.306;22.680;2023-12-20T07:02:58;19.50;;;9.90;;
70049;SDS011;57391;51.306;22.680;2023-12-20T07:05:01;21.00;;;10.40;;
70049;SDS011;57391;51.306;22.680;2023-12-20T07:07:03;19.10;;;10.60;;
70049;SDS011;57391;51.306;22.680;2023-12-20T07:09:05;16.50;;;8.60;;
70049;SDS011;57391;51.306;22.680;2023-12-20T07:11:10;18.70;;;10.70;;
70049;SDS011;57391;51.306;22.680;2023-12-20T07:13:13;18.50;;;10.30;;
70049;SDS011;57391;51.306;22.680;2023-12-20T07:15:15;19.10;;;10.00;;
70049;SDS011;57391;51.306;22.680;2023-12-20T07:17:18;14.80;;;8.10;;
70049;SDS011;57391;51.306;22.680;2023-12-20T07:19:23;20.10;;;9.90;;
70049;SDS011;57391;51.306;22.680;2023-12-20T07:21:24;16.00;;;8.50;;
70049;SDS011;57391;51.306;22.680;2023-12-20T07:23:27;18.90;;;9.10;;
70049;SDS011;57391;51.306;22.680;2023-12-20T07:25:28;19.60;;;10.20;;
70049;SDS011;57391;51.306;22.680;2023-12-20T07:27:34;17.60;;;9.40;;
70049;SDS011;57391;51.306;22.680;2023-12-20T07:29:39;15.80;;;9.20;;
70049;SDS011;57391;51.306;22.680;2023-12-20T07:31:40;20.40;;;10.40;;
70049;SDS011;57391;51.306;22.680;2023-12-20T07:33:43;18.20;;;9.60;;
70049;SDS011;57391;51.306;22.680;2023-12-20T07:35:44;19.00;;;9.80;;
70049;SDS011;57391;51.306;22.680;2023-12-20T07:37:46;21.80;;;11.10;;
70049;SDS011;57391;51.306;22.680;2023-12-20T07:39:48;19.40;;;9.50;;
70049;SDS011;57391;51.306;22.680;2023-12-20T07:41:50;22.50;;;10.80;;
70049;SDS011;57391;51.306;22.680;2023-12-20T07:43:52;20.30;;;10.80;;
70049;SDS011;57391;51.306;22.680;2023-12-20T07:45:54;20.90;;;11.00;;
70049;SDS011;57391;51.306;22.680;2023-12-20T07:47:56;18.50;;;10.10;;
70049;SDS011;57391;51.306;22.680;2023-12-20T07:49:58;19.70;;;11.20;;
70049;SDS011;57391;51.306;22.680;2023-12-20T07:52:00;19.30;;;10.00;;
70049;SDS011;57391;51.306;22.680;2023-12-20T07:54:02;20.50;;;11.30;;
70049;SDS011;57391;51.306;22.680;2023-12-20T07:56:17;18.20;;;10.40;;
70049;SDS011;57391;51.306;22.680;2023-12-20T07:58:20;20.70;;;10.70;;
70049;SDS011;57391;51.306;22.680;2023-12-20T08:00:23;19.90;;;10.40;;
70049;SDS011;57391;51.306;22.680;2023-12-20T08:02:25;21.90;;;10.20;;
70049;SDS011;57391;51.306;22.680;2023-12-20T08:04:27;21.10;;;10.70;;
70049;SDS011;57391;51.306;22.680;2023-12-20T08:06:29;22.80;;;11.70;;
70049;SDS011;57391;51.306;22.680;2023-12-20T08:08:30;23.30;;;12.20;;
70049;SDS011;57391;51.306;22.680;2023-12-20T08:10:32;23.10;;;11.80;;
70049;SDS011;57391;51.306;22.680;2023-12-20T08:12:34;26.50;;;13.10;;
70049;SDS011;57391;51.306;22.680;2023-12-20T08:14:36;27.60;;;13.50;;
70049;SDS011;57391;51.306;22.680;2023-12-20T08:16:38;26.00;;;13.20;;
70049;SDS011;57391;51.306;22.680;2023-12-20T08:18:40;25.40;;;12.50;;
70049;SDS011;57391;51.306;22.680;2023-12-20T08:20:42;24.50;;;11.90;;
70049;SDS011;57391;51.306;22.680;2023-12-20T08:22:44;22.50;;;11.40;;
70049;SDS011;57391;51.306;22.680;2023-12-20T08:24:46;24.90;;;11.70;;
70049;SDS011;57391;51.306;22.680;2023-12-20T08:26:48;23.80;;;11.80;;
70049;SDS011;57391;51.306;22.680;2023-12-20T08:28:50;22.70;;;12.20;;
70049;SDS011;57391;51.306;22.680;2023-12-20T08:30:53;24.30;;;11.50;;
70049;SDS011;57391;51.306;22.680;2023-12-20T08:32:55;19.50;;;10.30;;
70049;SDS011;57391;51.306;22.680;2023-12-20T08:34:57;21.90;;;10.90;;
70049;SDS011;57391;51.306;22.680;2023-12-20T08:36:59;20.80;;;11.20;;
70049;SDS011;57391;51.306;22.680;2023-12-20T08:39:02;21.40;;;10.10;;
70049;SDS011;57391;51.306;22.680;2023-12-20T08:41:06;20.10;;;10.20;;
70049;SDS011;57391;51.306;22.680;2023-12-20T08:43:08;19.20;;;10.10;;
70049;SDS011;57391;51.306;22.680;2023-12-20T08:45:10;17.70;;;9.50;;
70049;SDS011;57391;51.306;22.680;2023-12-20T08:47:12;16.80;;;8.60;;
70049;SDS011;57391;51.306;22.680;2023-12-20T08:49:17;17.80;;;9.90;;
70049;SDS011;57391;51.306;22.680;2023-12-20T08:51:20;23.70;;;12.70;;
70049;SDS011;57391;51.306;22.680;2023-12-20T08:53:25;18.30;;;9.60;;
70049;SDS011;57391;51.306;22.680;2023-12-20T08:55:28;20.00;;;10.20;;
70049;SDS011;57391;51.306;22.680;2023-12-20T08:57:31;17.30;;;9.70;;
70049;SDS011;57391;51.306;22.680;2023-12-20T08:59:35;19.90;;;10.40;;
70049;SDS011;57391;51.306;22.680;2023-12-20T09:01:37;23.30;;;11.30;;
70049;SDS011;57391;51.306;22.680;2023-12-20T09:03:39;19.20;;;9.70;;
70049;SDS011;57391;51.306;22.680;2023-12-20T09:05:41;23.50;;;11.90;;
70049;SDS011;57391;51.306;22.680;2023-12-20T09:07:43;21.10;;;11.00;;
70049;SDS011;57391;51.306;22.680;2023-12-20T09:09:45;17.60;;;10.30;;
70049;SDS011;57391;51.306;22.680;2023-12-20T09:11:47;23.00;;;10.90;;
70049;SDS011;57391;51.306;22.680;2023-12-20T09:13:51;19.30;;;11.20;;
70049;SDS011;57391;51.306;22.680;2023-12-20T09:15:55;18.80;;;9.90;;
70049;SDS011;57391;51.306;22.680;2023-12-20T09:17:57;18.00;;;9.50;;
70049;SDS011;57391;51.306;22.680;2023-12-20T09:20:00;17.80;;;9.40;;
70049;SDS011;57391;51.306;22.680;2023-12-20T09:22:02;20.50;;;10.40;;
70049;SDS011;57391;51.306;22.680;2023-12-20T09:24:04;20.60;;;10.00;;
70049;SDS011;57391;51.306;22.680;2023-12-20T09:26:06;20.30;;;11.00;;
70049;SDS011;57391;51.306;22.680;2023-12-20T09:28:08;19.40;;;10.20;;
70049;SDS011;57391;51.306;22.680;2023-12-20T09:30:10;18.80;;;10.50;;
70049;SDS011;57391;51.306;22.680;2023-12-20T09:32:12;20.80;;;10.50;;
70049;SDS011;57391;51.306;22.680;2023-12-20T09:34:15;18.50;;;10.50;;
70049;SDS011;57391;51.306;22.680;2023-12-20T09:36:19;20.40;;;11.10;;
70049;SDS011;57391;51.306;22.680;2023-12-20T09:38:20;19.70;;;10.80;;
70049;SDS011;57391;51.306;22.680;2023-12-20T09:40:26;22.50;;;10.70;;
70049;SDS011;57391;51.306;22.680;2023-12-20T09:42:57;19.50;;;10.10;;
70049;SDS011;57391;51.306;22.680;2023-12-20T09:45:01;18.70;;;9.60;;
70049;SDS011;57391;51.306;22.680;2023-12-20T09:47:05;17.40;;;9.20;;
70049;SDS011;57391;51.306;22.680;2023-12-20T09:49:08;17.80;;;9.10;;
70049;SDS011;57391;51.306;22.680;2023-12-20T09:51:10;16.50;;;9.20;;
70049;SDS011;57391;51.306;22.680;2023-12-20T09:53:15;17.00;;;8.60;;
70049;SDS011;57391;51.306;22.680;2023-12-20T09:55:18;16.00;;;8.90;;
70049;SDS011;57391;51.306;22.680;2023-12-20T09:57:21;15.50;;;8.60;;
70049;SDS011;57391;51.306;22.680;2023-12-20T09:59:23;17.10;;;9.00;;
70049;SDS011;57391;51.306;22.680;2023-12-20T10:01:25;15.10;;;8.20;;
70049;SDS011;57391;51.306;22.680;2023-12-20T10:03:31;18.00;;;9.30;;
70049;SDS011;57391;51.306;22.680;2023-12-20T10:05:33;16.20;;;8.40;;
70049;SDS011;57391;51.306;22.680;2023-12-20T10:07:36;15.10;;;8.40;;
70049;SDS011;57391;51.306;22.680;2023-12-20T10:09:38;16.80;;;8.70;;
70049;SDS011;57391;51.306;22.680;2023-12-20T10:11:40;14.50;;;8.30;;
70049;SDS011;57391;51.306;22.680;2023-12-20T10:13:45;15.30;;;7.60;;
70049;SDS011;57391;51.306;22.680;2023-12-20T10:15:49;14.60;;;7.40;;
70049;SDS011;57391;51.306;22.680;2023-12-20T10:17:51;17.20;;;8.40;;
70049;SDS011;57391;51.306;22.680;2023-12-20T10:19:53;16.50;;;8.00;;
70049;SDS011;57391;51.306;22.680;2023-12-20T10:21:55;13.40;;;7.10;;
70049;SDS011;57391;51.306;22.680;2023-12-20T10:23:57;14.40;;;7.40;;
70049;SDS011;57391;51.306;22.680;2023-12-20T10:25:59;22.30;;;11.80;;
70049;SDS011;57391;51.306;22.680;2023-12-20T10:28:14;25.70;;;14.50;;
70049;SDS011;57391;51.306;22.680;2023-12-20T10:30:22;27.20;;;15.50;;
70049;SDS011;57391;51.306;22.680;2023-12-20T10:32:25;22.50;;;11.80;;
70049;SDS011;57391;51.306;22.680;2023-12-20T10:34:28;24.40;;;12.80;;
70049;SDS011;57391;51.306;22.680;2023-12-20T10:38:16;26.40;;;15.00;;
70049;SDS011;57391;51.306;22.680;2023-12-20T10:40:18;30.70;;;17.00;;
70049;SDS011;57391;51.306;22.680;2023-12-20T10:42:21;21.40;;;12.20;;
70049;SDS011;57391;51.306;22.680;2023-12-20T10:44:24;20.10;;;11.20;;
70049;SDS011;57391;51.306;22.680;2023-12-20T10:46:27;19.20;;;10.80;;
70049;SDS011;57391;51.306;22.680;2023-12-20T10:48:32;24.70;;;12.20;;
70049;SDS011;57391;51.306;22.680;2023-12-20T10:50:36;23.50;;;12.30;;
70049;SDS011;57391;51.306;22.680;2023-12-20T10:52:42;21.70;;;10.90;;
70049;SDS011;57391;51.306;22.680;2023-12-20T10:54:47;26.90;;;12.60;;
70049;SDS011;57391;51.306;22.680;2023-12-20T10:56:51;28.60;;;13.70;;
70049;SDS011;57391;51.306;22.680;2023-12-20T10:58:54;23.90;;;12.50;;
70049;SDS011;57391;51.306;22.680;2023-12-20T11:01:00;23.90;;;13.00;;
70049;SDS011;57391;51.306;22.680;2023-12-20T11:03:09;20.90;;;10.80;;
70049;SDS011;57391;51.306;22.680;2023-12-20T11:07:36;21.00;;;11.00;;
70049;SDS011;57391;51.306;22.680;2023-12-20T11:09:54;21.80;;;10.40;;
70049;SDS011;57391;51.306;22.680;2023-12-20T11:12:28;16.90;;;8.00;;
70049;SDS011;57391;51.306;22.680;2023-12-20T11:14:47;14.60;;;8.30;;
70049;SDS011;57391;51.306;22.680;2023-12-20T11:17:26;11.90;;;6.20;;
70049;SDS011;57391;51.306;22.680;2023-12-20T11:19:28;13.50;;;6.90;;
70049;SDS011;57391;51.306;22.680;2023-12-20T11:21:30;9.90;;;5.00;;
70049;SDS011;57391;51.306;22.680;2023-12-20T11:23:33;9.60;;;4.80;;
70049;SDS011;57391;51.306;22.680;2023-12-20T11:25:56;9.90;;;4.80;;
70049;SDS011;57391;51.306;22.680;2023-12-20T11:28:10;10.10;;;4.60;;
70049;SDS011;57391;51.306;22.680;2023-12-20T11:30:14;7.70;;;3.80;;
70049;SDS011;57391;51.306;22.680;2023-12-20T11:34:28;6.50;;;3.10;;
70049;SDS011;57391;51.306;22.680;2023-12-20T11:36:33;6.30;;;3.20;;
70049;SDS011;57391;51.306;22.680;2023-12-20T11:38:36;7.00;;;3.10;;
70049;SDS011;57391;51.306;22.680;2023-12-20T11:40:41;4.90;;;2.40;;
70049;SDS011;57391;51.306;22.680;2023-12-20T11:42:46;6.10;;;2.50;;
70049;SDS011;57391;51.306;22.680;2023-12-20T11:44:50;5.70;;;2.70;;
70049;SDS011;57391;51.306;22.680;2023-12-20T11:46:52;5.20;;;2.50;;
70049;SDS011;57391;51.306;22.680;2023-12-20T11:48:55;5.50;;;2.40;;
70049;SDS011;57391;51.306;22.680;2023-12-20T11:50:58;6.20;;;2.80;;
70049;SDS011;57391;51.306;22.680;2023-12-20T11:53:00;6.50;;;3.00;;
70049;SDS011;57391;51.306;22.680;2023-12-20T11:55:02;6.30;;;3.00;;
70049;SDS011;57391;51.306;22.680;2023-12-20T11:57:05;8.70;;;3.80;;
70049;SDS011;57391;51.306;22.680;2023-12-20T11:59:08;7.20;;;3.50;;
70049;SDS011;57391;51.306;22.680;2023-12-20T12:01:10;7.80;;;3.30;;